Time;durP1;ratioP1;P1;durP2;ratioP2;P2;SDS_P1;SDS_P2;PMS_P1;PMS_P2;Temp;Humidity;BMP_temperature;BMP_pressure;BME280_temperature;BME280_humidity;BME280_pressure;Samples;Min_cycle;Max_cycle;Signal;HPM_P1;HPM_P2
2022/10/04 00:09:05;;;;;;;582.80;136.47;;;9.30;1.00;;;;;;4901097;29;20235;-92
2022/10/04 00:19:59;;;;;;;579.93;180.97;;;9.20;1.00;;;;;;4941908;28;20267;-91
2022/10/04 00:36:51;;;;;;;570.07;138.33;;;9.10;1.00;;;;;;4904844;29;20271;-90
2022/10/04 00:57:28;;;;;;;589.13;189.27;;;8.70;1.00;;;;;;4933984;28;20197;-91
2022/10/04 01:04:19;;;;;;;571.83;189.70;;;8.40;1.00;;;;;;4937701;28;20644;-89
2022/10/04 01:07:31;;;;;;;582.67;183.63;;;8.40;1.00;;;;;;5009402;28;20233;-92
2022/10/04 01:31:28;;;;;;;;;;;;;;;;;;;;;
2022/10/04 01:48:32;;;;;;;;;;;;;;;;;;;;;
2022/10/04 01:55:24;;;;;;;;;;;;;;;;;;;;;
2022/10/04 02:26:45;;;;;;;573.00;121.37;;;8.20;1.00;;;;;;4873869;28;20295;-90
2022/10/04 02:29:49;;;;;;;565.97;122.43;;;8.30;99.90;;;;;;5052718;28;20218;-88
2022/10/04 02:42:56;;;;;;;566.20;126.37;;;8.70;99.90;;;;;;5029956;28;20283;-89
2022/10/04 02:46:17;;;;;;;567.53;126.53;;;8.80;99.90;;;;;;4980111;28;20202;-89
2022/10/04 02:56:11;;;;;;;;;;;;;;;;;;;;;
2022/10/04 02:59:47;;;;;;;571.83;130.37;;;8.90;1.00;;;;;;4990584;28;20232;-89
2022/10/04 03:06:16;;;;;;;11.23;2.10;;;8.90;99.90;;;;;;4928343;28;20208;-89
2022/10/04 03:37:14;;;;;;;593.23;190.30;;;9.50;99.90;;;;;;4820937;29;20298;-89
2022/10/04 03:44:25;;;;;;;;;;;;;;;;;;;;;
2022/10/04 03:47:37;;;;;;;359.47;201.10;;;9.80;1.00;;;;;;4789094;29;20208;-89
2022/10/04 03:57:52;;;;;;;314.80;196.80;;;10.10;99.90;;;;;;4996909;28;20686;-88
2022/10/04 04:04:44;;;;;;;287.77;180.67;;;10.20;1.00;;;;;;5023336;28;20216;-88
2022/10/04 04:11:23;;;;;;;554.17;244.07;;;10.30;99.90;;;;;;4988250;28;20646;-87
2022/10/04 04:18:28;;;;;;;225.73;140.87;;;10.40;1.00;;;;;;4853556;29;20206;-85
2022/10/04 04:28:16;;;;;;;525.17;218.73;;;10.60;99.90;;;;;;4950951;29;20194;-90
2022/10/04 04:34:38;;;;;;;562.67;228.87;;;10.70;99.90;;;;;;4976004;28;20202;-88
2022/10/04 04:38:00;;;;;;;625.53;221.17;;;10.80;11.40;;;;;;4912558;29;20214;-89
2022/10/04 04:40:28;;;;;;;432.30;228.67;;;10.80;4.90;;;;;;4925758;28;20210;-87
2022/10/04 04:42:58;;;;;;;389.17;227.83;;;10.90;99.90;;;;;;5025805;28;20218;-89
2022/10/04 04:45:28;;;;;;;460.77;223.17;;;10.90;27.10;;;;;;5062188;28;20711;-89
2022/10/04 04:47:57;;;;;;;567.60;229.53;;;10.90;46.50;;;;;;5074844;28;20580;-87
2022/10/04 04:50:26;;;;;;;610.27;221.83;;;11.00;1.00;;;;;;5075063;28;20229;-86
2022/10/04 04:52:58;;;;;;;530.67;236.30;;;11.00;30.10;;;;;;5074749;28;20196;-86
2022/10/04 04:55:29;;;;;;;624.77;214.43;;;11.00;1.00;;;;;;5065203;28;20181;-86
2022/10/04 04:57:58;;;;;;;391.43;231.93;;;11.10;1.00;;;;;;5054824;28;20562;-86
2022/10/04 05:00:31;;;;;;;540.23;233.90;;;11.10;1.00;;;;;;5054507;28;20181;-86
2022/10/04 05:03:00;;;;;;;482.97;247.37;;;11.10;1.00;;;;;;5058740;28;20188;-87
2022/10/04 05:05:29;;;;;;;72.83;66.30;;;11.10;1.00;;;;;;5059901;28;20714;-87
2022/10/04 05:08:15;;;;;;;39.63;35.67;;;11.10;1.00;;;;;;5054892;28;20224;-86
2022/10/04 05:10:47;;;;;;;25.23;22.20;;;11.10;1.00;;;;;;5054504;28;20612;-86
2022/10/04 05:13:15;;;;;;;121.40;104.60;;;11.20;1.00;;;;;;5055265;28;20189;-86
2022/10/04 05:15:43;;;;;;;139.23;124.97;;;11.20;1.00;;;;;;5069794;28;20198;-87
2022/10/04 05:18:20;;;;;;;163.90;144.97;;;11.20;1.00;;;;;;5074630;28;20256;-85
2022/10/04 05:20:52;;;;;;;217.80;175.57;;;11.20;1.00;;;;;;5074712;28;20183;-87
2022/10/04 05:23:19;;;;;;;400.83;228.83;;;11.20;99.90;;;;;;5074635;28;20534;-86
2022/10/04 05:25:59;;;;;;;504.33;234.20;;;11.20;99.90;;;;;;5074389;28;20204;-89
2022/10/04 05:29:10;;;;;;;285.37;221.73;;;11.30;99.90;;;;;;5073961;28;20211;-89
2022/10/04 05:31:50;;;;;;;195.47;171.73;;;11.30;5.10;;;;;;5073644;28;20242;-89
2022/10/04 05:34:22;;;;;;;340.63;222.93;;;11.30;1.00;;;;;;5074171;28;20660;-89
2022/10/04 05:37:10;;;;;;;36.77;21.47;;;11.30;1.00;;;;;;5074195;28;20201;-89
2022/10/04 05:39:43;;;;;;;61.13;55.03;;;11.30;1.00;;;;;;5074683;28;20293;-88
2022/10/04 05:42:22;;;;;;;106.43;75.43;;;11.30;1.00;;;;;;5074496;28;20592;-88
2022/10/04 05:44:51;;;;;;;54.33;47.97;;;11.30;1.00;;;;;;5074314;28;20572;-86
2022/10/04 05:47:22;;;;;;;303.33;212.13;;;11.30;1.00;;;;;;5073887;28;20207;-89
2022/10/04 05:49:52;;;;;;;317.70;223.20;;;11.30;1.00;;;;;;5073939;28;20221;-89
2022/10/04 05:52:29;;;;;;;413.67;224.57;;;11.30;1.00;;;;;;5074191;28;20257;-88
2022/10/04 05:55:16;;;;;;;340.23;204.83;;;11.40;1.00;;;;;;5073777;28;20184;-90
2022/10/04 05:58:17;;;;;;;346.07;220.17;;;11.40;1.00;;;;;;5097419;28;20188;-89
2022/10/04 06:01:14;;;;;;;312.70;209.87;;;11.40;99.90;;;;;;5097605;28;20202;-92
2022/10/04 06:04:11;;;;;;;455.10;227.87;;;11.50;1.00;;;;;;5058836;28;20195;-92
2022/10/04 06:06:56;;;;;;;189.83;167.27;;;11.50;99.90;;;;;;5097167;28;20280;-91
2022/10/04 06:09:45;;;;;;;418.43;228.57;;;11.60;99.90;;;;;;5097294;28;20194;-90
2022/10/04 06:12:34;;;;;;;628.37;233.20;;;11.60;99.90;;;;;;5097128;28;20194;-92
2022/10/04 06:15:32;;;;;;;487.30;225.77;;;11.60;1.00;;;;;;5097392;28;20186;-92
2022/10/04 06:18:37;;;;;;;526.47;236.67;;;11.60;1.00;;;;;;5097134;28;20472;-93
2022/10/04 06:21:19;;;;;;;481.73;241.73;;;11.70;1.00;;;;;;5058165;28;20246;-88
2022/10/04 06:23:53;;;;;;;411.87;237.20;;;11.70;99.90;;;;;;5073831;28;20540;-89
2022/10/04 06:26:24;;;;;;;553.70;244.70;;;11.70;99.90;;;;;;5073207;28;20634;-87
2022/10/04 06:28:56;;;;;;;414.80;236.13;;;11.80;99.90;;;;;;5073109;28;20192;-87
2022/10/04 06:31:59;;;;;;;425.60;242.83;;;11.80;99.90;;;;;;5073419;28;20219;-89
2022/10/04 06:35:08;;;;;;;513.80;245.40;;;11.80;99.90;;;;;;5073016;28;20183;-89
2022/10/04 06:38:05;;;;;;;524.60;246.97;;;11.80;1.00;;;;;;5073336;28;20596;-86
2022/10/04 06:40:58;;;;;;;366.07;219.30;;;11.80;1.00;;;;;;5044632;28;20289;-88
2022/10/04 06:43:47;;;;;;;484.93;246.47;;;11.90;1.00;;;;;;5073119;28;20237;-89
2022/10/04 06:46:21;;;;;;;571.23;244.33;;;11.90;1.00;;;;;;5072997;28;20633;-89
2022/10/04 06:49:32;;;;;;;503.70;247.30;;;12.00;1.00;;;;;;5073140;28;20185;-87
2022/10/04 06:52:28;;;;;;;572.13;246.43;;;12.00;1.00;;;;;;5072910;28;20243;-88
2022/10/04 06:55:25;;;;;;;642.40;240.63;;;12.10;1.00;;;;;;5044228;28;20200;-88
2022/10/04 06:58:08;;;;;;;532.63;244.83;;;12.10;1.00;;;;;;5072780;28;20221;-88
2022/10/04 07:00:41;;;;;;;518.87;250.47;;;12.20;1.00;;;;;;5072960;28;20562;-88
2022/10/04 07:03:14;;;;;;;546.60;256.23;;;12.30;47.80;;;;;;5073009;28;20510;-88
2022/10/04 07:05:48;;;;;;;587.97;261.43;;;12.30;1.00;;;;;;5072981;28;20232;-88
2022/10/04 07:08:31;;;;;;;620.27;253.80;;;12.40;1.00;;;;;;5072762;28;20187;-88
2022/10/04 07:11:03;;;;;;;621.07;260.77;;;12.40;99.90;;;;;;5072850;28;20711;-88
2022/10/04 07:13:45;;;;;;;600.67;259.03;;;12.50;99.90;;;;;;5072949;28;20652;-88
2022/10/04 07:16:29;;;;;;;630.90;262.30;;;12.50;51.10;;;;;;5072891;28;20177;-88
2022/10/04 07:19:09;;;;;;;471.47;238.63;;;12.60;1.00;;;;;;5073103;28;20205;-88
2022/10/04 07:21:48;;;;;;;644.00;249.50;;;12.60;1.00;;;;;;5073282;28;20285;-88
2022/10/04 07:24:24;;;;;;;646.50;251.40;;;12.60;99.90;;;;;;5073058;28;20174;-89
2022/10/04 07:26:54;;;;;;;632.60;248.80;;;12.60;1.00;;;;;;5072979;28;20204;-88
2022/10/04 07:29:24;;;;;;;643.77;250.10;;;12.60;1.00;;;;;;5072875;28;20181;-88
2022/10/04 07:32:04;;;;;;;634.37;256.13;;;12.70;1.00;;;;;;5072619;28;20243;-89
2022/10/04 07:34:34;;;;;;;637.87;243.83;;;12.80;1.00;;;;;;5073019;28;20309;-89
2022/10/04 07:37:11;;;;;;;639.57;249.93;;;12.90;1.00;;;;;;5072659;28;20195;-89
2022/10/04 07:39:46;;;;;;;638.07;239.13;;;13.10;1.00;;;;;;5072951;28;20616;-89
2022/10/04 07:42:28;;;;;;;645.10;251.63;;;13.20;1.00;;;;;;5072697;28;20200;-89
2022/10/04 07:45:14;;;;;;;638.20;248.13;;;13.40;1.00;;;;;;5072985;28;20202;-89
2022/10/04 07:47:42;;;;;;;641.73;258.73;;;13.50;99.90;;;;;;5072862;28;20209;-89
2022/10/04 07:50:22;;;;;;;643.77;259.70;;;13.50;1.00;;;;;;5072969;28;20205;-89
2022/10/04 07:52:56;;;;;;;;;;;13.70;1.00;;;;;;5073308;28;20269;-90
2022/10/04 07:55:25;;;;;;;;;;;14.00;99.90;;;;;;5072959;28;20345;-89
2022/10/04 07:58:08;;;;;;;;;;;14.50;99.90;;;;;;5073485;28;19921;-90
2022/10/04 08:00:48;;;;;;;653.03;293.13;;;15.00;1.00;;;;;;5072510;28;20238;-90
2022/10/04 08:03:32;;;;;;;673.20;294.37;;;15.20;51.00;;;;;;5072743;28;20629;-90
2022/10/04 08:06:10;;;;;;;654.57;290.17;;;15.10;1.00;;;;;;5072847;28;20229;-90
2022/10/04 08:09:10;;;;;;;652.60;291.20;;;15.10;1.00;;;;;;5073015;28;20606;-90
2022/10/04 08:11:44;;;;;;;672.27;290.13;;;15.10;1.00;;;;;;5052628;28;20567;-90
2022/10/04 08:31:28;;;;;;;;;;;;;;;;;;;;;
2022/10/04 08:34:33;;;;;;;;;;;18.80;1.00;;;;;;5067828;28;19928;-93
2022/10/04 08:50:19;;;;;;;;;;;;;;;;;;;;;
2022/10/04 08:59:22;;;;;;;;;;;21.80;1.00;;;;;;4930179;29;20027;-95
2022/10/04 09:09:41;;;;;;;;;;;;;;;;;;;;;
2022/10/04 09:12:57;;;;;;;740.20;565.33;;;22.40;1.00;;;;;;5054662;28;20247;-95
2022/10/04 09:30:23;;;;;;;720.33;512.35;;;21.40;1.00;;;;;;4861343;29;25079;-95
2022/10/04 09:47:55;;;;;;;710.03;466.30;;;20.00;1.00;;;;;;5060397;28;20268;-94
2022/10/04 09:50:56;;;;;;;;;;;20.20;1.00;;;;;;5047003;28;20496;-94
2022/10/04 10:29:36;;;;;;;685.90;379.07;;;18.50;1.00;;;;;;4880074;29;20723;-95
2022/10/04 10:39:43;;;;;;;692.83;386.03;;;17.90;1.00;;;;;;4917405;29;20199;-94
2022/10/04 11:14:02;;;;;;;;;;;;;;;;;;;;;
2022/10/04 11:24:20;;;;;;;705.40;354.03;;;17.90;1.00;;;;;;4880585;29;20232;-95
2022/10/04 12:07:05;;;;;;;666.77;341.20;;;18.40;1.00;;;;;;4772441;30;20299;-92
2022/10/04 12:09:40;;;;;;;657.17;337.33;;;18.30;1.00;;;;;;4873937;29;20210;-92
2022/10/04 12:12:36;;;;;;;652.43;338.30;;;18.30;1.00;;;;;;5072346;28;20219;-91
2022/10/04 12:15:31;;;;;;;650.07;332.97;;;18.40;1.00;;;;;;5077105;28;20204;-93
2022/10/04 12:18:31;;;;;;;657.83;345.20;;;18.50;1.00;;;;;;5076889;28;20579;-92
2022/10/04 12:21:57;;;;;;;654.37;345.13;;;18.30;1.00;;;;;;5070904;28;20313;-91
2022/10/04 12:24:50;;;;;;;660.40;344.80;;;17.90;1.00;;;;;;5057840;28;20216;-90
2022/10/04 12:27:42;;;;;;;647.10;333.93;;;17.80;1.00;;;;;;5077013;28;20200;-92
2022/10/04 12:30:26;;;;;;;642.13;328.47;;;17.90;1.00;;;;;;5076758;28;20210;-91
2022/10/04 12:33:03;;;;;;;638.57;327.10;;;18.00;1.00;;;;;;5076757;28;20239;-91
2022/10/04 12:56:07;;;;;;;663.67;357.03;;;18.30;1.00;;;;;;4864119;29;20672;-94
2022/10/04 12:58:48;;;;;;;666.77;365.37;;;18.40;1.00;;;;;;4896721;29;20683;-92
2022/10/04 13:01:25;;;;;;;653.53;343.87;;;18.30;1.00;;;;;;5075055;28;20204;-94
2022/10/04 13:08:12;;;;;;;;;;;;;;;;;;;;;
2022/10/04 13:31:05;;;;;;;660.60;340.23;;;18.20;1.00;;;;;;4820508;29;20197;-91
2022/10/04 13:33:42;;;;;;;655.67;341.87;;;18.20;1.00;;;;;;5035982;28;20219;-88
2022/10/04 13:36:17;;;;;;;652.03;336.13;;;18.20;1.00;;;;;;5066953;28;20678;-91
2022/10/04 13:39:24;;;;;;;657.73;340.93;;;18.10;1.00;;;;;;5057412;28;20186;-89
2022/10/04 13:42:16;;;;;;;660.67;347.23;;;17.90;1.00;;;;;;5052659;28;20184;-88
2022/10/04 13:45:07;;;;;;;670.67;353.00;;;17.70;1.00;;;;;;5073065;28;20232;-90
2022/10/04 13:47:57;;;;;;;658.67;338.30;;;17.50;1.00;;;;;;5054941;28;20197;-95
2022/10/04 13:56:57;;;;;;;638.23;312.30;;;17.70;1.00;;;;;;5054238;28;20269;-89
2022/10/04 14:03:13;;;;;;;652.57;327.30;;;17.80;1.00;;;;;;5037810;28;20683;-90
2022/10/04 14:06:28;;;;;;;638.30;316.53;;;17.70;1.00;;;;;;5063202;28;20200;-91
2022/10/04 14:09:31;;;;;;;636.93;321.17;;;17.60;1.00;;;;;;4981263;28;20195;-92
2022/10/04 14:12:31;;;;;;;633.97;307.67;;;17.60;1.00;;;;;;4993687;28;20362;-91
2022/10/04 14:15:52;;;;;;;649.03;317.83;;;17.60;1.00;;;;;;5075301;28;20291;-92
2022/10/04 14:22:50;;;;;;;;;;;;;;;;;;;;;
2022/10/04 14:29:40;;;;;;;641.80;308.23;;;17.40;1.00;;;;;;5073866;28;20234;-92
2022/10/04 14:32:39;;;;;;;642.57;306.13;;;17.30;1.00;;;;;;5074077;28;20220;-93
2022/10/04 14:43:09;;;;;;;698.03;337.00;;;16.90;1.00;;;;;;5085836;28;20186;-93
2022/10/04 14:45:44;;;;;;;751.13;351.37;;;16.90;1.00;;;;;;5208726;23;20232;-92
2022/10/04 14:48:42;;;;;;;742.70;348.07;;;16.80;1.00;;;;;;5054429;28;20193;-91
2022/10/04 14:54:42;;;;;;;707.77;317.40;;;16.70;1.00;;;;;;5057941;28;20211;-93
2022/10/04 14:57:18;;;;;;;730.67;322.43;;;16.60;1.00;;;;;;5053831;28;20200;-90
2022/10/04 15:03:28;;;;;;;690.13;327.27;;;16.40;1.00;;;;;;5030571;28;20193;-93
2022/10/04 15:06:48;;;;;;;696.70;325.50;;;16.30;1.00;;;;;;5060754;28;20212;-94
2022/10/04 15:09:28;;;;;;;687.57;319.53;;;16.10;1.00;;;;;;5053404;28;20209;-92
2022/10/04 15:12:00;;;;;;;675.70;306.40;;;16.00;1.00;;;;;;5053822;28;20201;-91
2022/10/04 15:14:35;;;;;;;678.17;311.50;;;15.90;1.00;;;;;;5066725;28;20204;-95
2022/10/04 15:20:58;;;;;;;680.37;303.83;;;15.80;1.00;;;;;;4988919;28;20231;-93
2022/10/04 15:23:48;;;;;;;;;;;15.70;1.00;;;;;;5059881;28;20068;-94
2022/10/04 15:26:44;;;;;;;668.17;291.00;;;15.70;1.00;;;;;;5061503;28;20017;-93
2022/10/04 15:29:47;;;;;;;668.17;296.83;;;15.60;1.00;;;;;;5066978;28;20187;-95
2022/10/04 15:32:48;;;;;;;672.90;302.60;;;15.50;1.00;;;;;;5139914;22;20198;31
2022/10/04 15:39:03;;;;;;;;;;;15.40;1.00;;;;;;4997036;28;19986;-92
2022/10/04 15:55:06;;;;;;;639.33;265.40;;;15.00;1.00;;;;;;5430763;23;20258;-94
2022/10/04 15:58:20;;;;;;;641.93;265.30;;;15.00;1.00;;;;;;4946509;29;20206;-93
2022/10/04 16:28:01;;;;;;;679.93;282.47;;;14.00;1.00;;;;;;4916549;29;20247;-91
2022/10/04 16:30:34;;;;;;;667.57;268.13;;;13.90;1.00;;;;;;4938051;29;20208;-88
2022/10/04 16:33:29;;;;;;;662.03;271.37;;;13.80;1.00;;;;;;4934421;29;20213;-90
2022/10/04 16:36:09;;;;;;;648.53;250.83;;;13.70;1.00;;;;;;4952048;29;20197;-87
2022/10/04 16:39:57;;;;;;;650.73;253.13;;;13.70;1.00;;;;;;4941659;29;20742;-85
2022/10/04 16:41:39;;;;;;;659.77;256.97;;;13.60;1.00;;;;;;4930888;29;20618;-85
2022/10/04 16:44:21;;;;;;;647.87;255.10;;;13.50;1.00;;;;;;4934693;29;20244;-87
2022/10/04 16:46:51;;;;;;;;;;;13.30;1.00;;;;;;4919344;29;20674;-86
2022/10/04 16:49:21;;;;;;;;;;;13.30;1.00;;;;;;4923199;29;20447;-87
2022/10/04 16:52:13;;;;;;;690.50;280.00;;;13.20;1.00;;;;;;4932128;29;20445;-86
2022/10/04 16:55:10;;;;;;;690.77;272.93;;;13.10;1.00;;;;;;4924648;29;20195;-89
2022/10/04 16:57:42;;;;;;;681.33;270.27;;;13.00;1.00;;;;;;4931686;29;20201;-88
2022/10/04 17:00:36;;;;;;;678.93;263.50;;;12.90;1.00;;;;;;4936833;29;20290;-89
2022/10/04 17:03:24;;;;;;;659.65;252.43;;;12.80;1.00;;;;;;4936413;29;20197;-90
2022/10/04 17:06:13;;;;;;;685.47;264.03;;;12.70;1.00;;;;;;4935738;29;20199;-89
2022/10/04 17:09:11;;;;;;;689.30;258.67;;;12.60;1.00;;;;;;4934743;29;20214;-89
2022/10/04 17:11:45;;;;;;;687.40;255.80;;;12.50;1.00;;;;;;4935377;29;20216;-89
2022/10/04 17:14:48;;;;;;;675.03;245.30;;;12.50;1.00;;;;;;4934167;29;20226;-89
2022/10/04 17:17:24;;;;;;;674.67;249.67;;;12.40;1.00;;;;;;4922334;29;20596;-88
2022/10/04 17:19:56;;;;;;;668.53;242.53;;;12.30;1.00;;;;;;4934590;29;20328;-89
2022/10/04 17:22:32;;;;;;;654.97;234.70;;;12.20;1.00;;;;;;4934538;29;20242;-91
2022/10/04 17:25:15;;;;;;;657.90;233.80;;;12.20;1.00;;;;;;4935597;29;20189;-88
2022/10/04 17:27:49;;;;;;;649.73;224.17;;;12.20;1.00;;;;;;4934654;29;20229;-88
2022/10/04 17:30:17;;;;;;;;;;;12.10;1.00;;;;;;4924433;29;20618;-88
2022/10/04 17:32:59;;;;;;;689.83;255.13;;;12.00;1.00;;;;;;4931102;29;20524;-88
2022/10/04 17:36:05;;;;;;;684.20;247.37;;;12.00;1.00;;;;;;4932386;29;20251;-90
2022/10/04 17:38:54;;;;;;;685.40;245.30;;;12.00;1.00;;;;;;4928529;29;20201;-89
2022/10/04 17:41:45;;;;;;;684.07;251.70;;;11.90;1.00;;;;;;4930227;29;20183;-87
2022/10/04 17:44:34;;;;;;;670.03;237.20;;;11.90;1.00;;;;;;4933901;29;20194;-91
2022/10/04 17:47:07;;;;;;;673.27;233.70;;;11.80;1.00;;;;;;4935513;29;20189;-88
2022/10/04 17:55:20;;;;;;;679.33;240.77;;;11.60;1.00;;;;;;4928663;29;20569;-88
2022/10/04 17:57:54;;;;;;;673.10;241.83;;;11.60;1.00;;;;;;4935460;29;20193;-87
2022/10/04 18:00:23;;;;;;;660.50;239.20;;;11.50;1.00;;;;;;4935320;29;20187;-88
2022/10/04 18:03:03;;;;;;;652.57;227.87;;;11.40;1.00;;;;;;4932894;29;20286;-90
2022/10/04 18:05:43;;;;;;;655.20;227.77;;;11.40;1.00;;;;;;4932638;29;20197;-89
2022/10/04 18:08:17;;;;;;;672.97;235.50;;;11.40;1.00;;;;;;4934200;29;20191;-88
2022/10/04 18:10:50;;;;;;;662.37;233.17;;;11.40;1.00;;;;;;4933567;29;20183;-89
2022/10/04 18:13:30;;;;;;;667.00;236.37;;;11.30;1.00;;;;;;4934188;29;20219;-87
2022/10/04 18:16:04;;;;;;;656.90;226.70;;;11.20;1.00;;;;;;4934925;29;20260;-92
2022/10/04 18:18:40;;;;;;;669.63;238.60;;;11.20;1.00;;;;;;4937037;29;20194;-94
2022/10/04 18:21:25;;;;;;;652.93;221.17;;;11.20;1.00;;;;;;4936778;29;20319;-92
2022/10/04 18:23:55;;;;;;;640.43;209.47;;;11.20;1.00;;;;;;4936289;29;20258;-91
2022/10/04 18:26:28;;;;;;;633.23;211.23;;;11.20;1.00;;;;;;4937291;29;20230;-92
2022/10/04 18:29:01;;;;;;;626.53;204.40;;;11.10;1.00;;;;;;4937458;29;20210;-92
2022/10/04 18:31:39;;;;;;;627.93;200.77;;;11.10;1.00;;;;;;4937245;29;20220;-91
2022/10/04 18:34:36;;;;;;;642.33;221.13;;;11.00;1.00;;;;;;4936439;29;20690;-92
2022/10/04 18:37:21;;;;;;;622.87;195.53;;;11.00;1.00;;;;;;4936815;29;20202;-92
2022/10/04 18:39:51;;;;;;;629.73;205.97;;;11.00;1.00;;;;;;4937158;29;20189;-92
2022/10/04 18:42:22;;;;;;;644.47;210.97;;;11.00;1.00;;;;;;4937602;29;20207;-93
2022/10/04 18:44:58;;;;;;;656.27;228.77;;;10.90;1.00;;;;;;4933798;29;20667;-92
2022/10/04 18:47:32;;;;;;;660.50;225.30;;;10.90;1.00;;;;;;4926826;29;20241;-93
2022/10/04 18:50:03;;;;;;;650.70;227.53;;;10.90;1.00;;;;;;4935699;29;20176;-91
2022/10/04 18:52:46;;;;;;;671.17;243.10;;;10.90;1.00;;;;;;4936068;29;20679;-91
2022/10/04 18:55:26;;;;;;;641.00;215.03;;;10.90;1.00;;;;;;4938939;29;20200;-91
2022/10/04 19:03:50;;;;;;;644.00;221.30;;;10.80;1.00;;;;;;4919330;29;20181;-90
2022/10/04 19:06:25;;;;;;;641.80;216.77;;;10.80;1.00;;;;;;4935129;29;20209;-91
2022/10/04 19:09:03;;;;;;;642.07;215.70;;;10.80;1.00;;;;;;4935598;29;20202;-91
2022/10/04 19:11:37;;;;;;;651.40;220.60;;;10.80;1.00;;;;;;4923023;29;20204;-91
2022/10/04 19:14:17;;;;;;;651.97;226.97;;;10.70;1.00;;;;;;4932511;29;20218;-90
2022/10/04 19:16:55;;;;;;;645.73;216.27;;;10.70;1.00;;;;;;4934065;29;20272;-89
2022/10/04 19:19:42;;;;;;;641.23;213.47;;;10.70;1.00;;;;;;4931729;29;20189;-89
2022/10/04 19:22:27;;;;;;;636.83;213.90;;;10.60;1.00;;;;;;4932533;29;20275;-89
2022/10/04 19:25:20;;;;;;;624.67;209.10;;;10.60;1.00;;;;;;4937902;29;20198;-89
2022/10/04 19:27:52;;;;;;;636.33;210.70;;;10.60;1.00;;;;;;4917873;29;20620;-88
2022/10/04 19:30:23;;;;;;;622.83;201.13;;;10.60;1.00;;;;;;4934927;29;20632;-91
2022/10/04 19:33:17;;;;;;;635.33;205.37;;;10.60;1.00;;;;;;4926690;29;20672;-88
2022/10/04 19:36:10;;;;;;;634.87;210.63;;;10.60;6.90;;;;;;4942833;29;20248;-87
2022/10/04 19:38:58;;;;;;;626.47;206.27;;;10.60;22.60;;;;;;4913348;29;20198;-88
2022/10/04 19:41:49;;;;;;;637.93;201.07;;;10.50;18.50;;;;;;4932457;29;20223;-88
2022/10/04 19:44:29;;;;;;;635.23;205.67;;;10.50;2.70;;;;;;4954108;29;20552;-90
2022/10/04 19:47:04;;;;;;;633.27;192.43;;;10.50;1.00;;;;;;4936748;29;20186;-90
2022/10/04 19:49:43;;;;;;;625.73;189.63;;;10.50;1.40;;;;;;4935896;29;20561;-91
2022/10/04 19:52:25;;;;;;;629.47;193.87;;;10.50;9.00;;;;;;4919113;29;20188;-90
2022/10/04 19:54:57;;;;;;;622.73;192.00;;;10.40;16.40;;;;;;4916122;29;20215;-88
2022/10/04 19:57:35;;;;;;;619.00;190.27;;;10.40;14.40;;;;;;4930932;29;20324;-88
2022/10/04 20:00:03;;;;;;;614.23;188.17;;;10.40;27.10;;;;;;4933222;29;20186;-88
2022/10/04 20:02:31;;;;;;;613.73;181.97;;;10.40;45.30;;;;;;4933292;29;20235;-88
2022/10/04 20:05:01;;;;;;;613.23;186.47;;;10.40;27.90;;;;;;4934618;29;20211;-88
2022/10/04 20:07:29;;;;;;;614.80;186.80;;;10.40;46.90;;;;;;4934809;29;20197;-88
2022/10/04 20:10:14;;;;;;;617.00;185.17;;;10.40;38.20;;;;;;4932855;29;20551;-87
2022/10/04 20:13:02;;;;;;;622.03;191.57;;;10.30;45.90;;;;;;4926481;29;20744;-88
2022/10/04 20:15:45;;;;;;;620.43;182.83;;;10.30;37.20;;;;;;4934771;29;20215;-89
2022/10/04 20:19:08;;;;;;;628.77;188.53;;;10.30;83.90;;;;;;4936576;29;20230;-88
2022/10/04 20:21:37;;;;;;;629.43;183.57;;;10.20;91.30;;;;;;4934244;29;20575;-87
2022/10/04 20:24:15;;;;;;;629.83;187.30;;;10.20;49.30;;;;;;4936173;29;20688;-86
2022/10/04 20:26:52;;;;;;;634.50;191.00;;;10.10;92.20;;;;;;4930828;29;20190;-85
2022/10/04 20:30:04;;;;;;;630.57;186.80;;;10.10;62.60;;;;;;4925783;29;20223;-87
2022/10/04 20:32:57;;;;;;;633.43;176.20;;;10.10;94.90;;;;;;4927591;29;20251;-86
2022/10/04 20:36:07;;;;;;;623.07;173.97;;;10.10;99.90;;;;;;4923578;29;20698;-88
2022/10/04 20:38:53;;;;;;;630.47;177.33;;;10.10;99.90;;;;;;4925956;29;20194;-88
2022/10/04 20:44:45;;;;;;;655.57;189.73;;;10.10;99.90;;;;;;4920606;29;20201;-86
2022/10/04 20:47:23;;;;;;;647.50;184.57;;;10.00;99.90;;;;;;4924125;29;20200;-86
2022/10/04 20:49:51;;;;;;;638.77;183.83;;;10.00;99.90;;;;;;4927277;29;20330;-86
2022/10/04 20:52:20;;;;;;;628.80;177.47;;;10.00;99.90;;;;;;4926981;29;20197;-86
2022/10/04 20:54:52;;;;;;;634.77;177.00;;;10.10;99.90;;;;;;4923118;29;20225;-87
2022/10/04 20:57:22;;;;;;;639.37;175.77;;;10.10;99.90;;;;;;4932762;29;20674;-86
2022/10/04 20:59:53;;;;;;;634.07;173.60;;;10.10;99.90;;;;;;4935430;29;20192;-85
2022/10/04 21:02:21;;;;;;;634.07;176.63;;;10.00;99.90;;;;;;4937710;29;20210;-87
2022/10/04 21:04:52;;;;;;;637.93;175.77;;;10.00;99.90;;;;;;4937485;29;20278;-87
2022/10/04 21:07:21;;;;;;;635.67;178.03;;;10.10;99.90;;;;;;4937426;29;20186;-87
2022/10/04 21:09:48;;;;;;;631.97;177.77;;;10.10;99.90;;;;;;4937050;29;20264;-87
2022/10/04 21:12:31;;;;;;;630.27;183.10;;;10.10;99.90;;;;;;4937167;29;20190;-87
2022/10/04 21:15:07;;;;;;;632.30;178.43;;;10.10;99.90;;;;;;4921965;29;20206;-87
2022/10/04 21:17:39;;;;;;;627.40;179.30;;;10.00;99.90;;;;;;4937385;29;20190;-87
2022/10/04 21:20:13;;;;;;;627.47;174.73;;;10.10;99.90;;;;;;4936895;29;20638;-87
2022/10/04 21:22:41;;;;;;;623.43;175.30;;;10.00;99.90;;;;;;4937522;29;20270;-87
2022/10/04 21:25:29;;;;;;;631.20;172.43;;;10.00;99.90;;;;;;4937515;29;20248;-86
2022/10/04 21:28:29;;;;;;;620.30;170.93;;;10.00;99.90;;;;;;4936646;29;20658;-85
2022/10/04 21:30:56;;;;;;;610.57;171.73;;;10.00;99.90;;;;;;4936732;29;20189;-86
2022/10/04 21:33:23;;;;;;;611.87;172.17;;;9.90;99.90;;;;;;4937021;29;20205;-88
2022/10/04 21:35:51;;;;;;;610.20;173.13;;;9.90;99.90;;;;;;4936964;29;20245;-89
2022/10/04 21:38:18;;;;;;;604.40;166.50;;;9.80;99.90;;;;;;4937095;29;20195;-87
2022/10/04 21:40:45;;;;;;;608.97;166.60;;;9.80;99.90;;;;;;4936671;29;20244;-87
2022/10/04 21:43:13;;;;;;;610.37;168.63;;;9.80;99.90;;;;;;4936644;29;20245;-88
2022/10/04 21:45:41;;;;;;;614.73;172.27;;;9.80;99.90;;;;;;4936181;29;20207;-87
2022/10/04 21:48:09;;;;;;;604.63;168.37;;;9.80;99.90;;;;;;4936573;29;20216;-87
2022/10/04 21:50:36;;;;;;;611.30;175.40;;;9.70;99.90;;;;;;4936683;29;20279;-86
2022/10/04 21:53:03;;;;;;;606.30;165.77;;;9.70;1.00;;;;;;4936527;29;20679;-86
2022/10/04 21:55:30;;;;;;;607.50;171.13;;;9.70;1.00;;;;;;4936530;29;20228;-87
2022/10/04 21:57:57;;;;;;;610.67;174.47;;;9.70;1.00;;;;;;4936899;29;20428;-86
2022/10/04 22:00:24;;;;;;;601.47;171.70;;;9.70;1.00;;;;;;4935601;29;20658;-87
2022/10/04 22:02:52;;;;;;;610.43;175.67;;;9.80;1.00;;;;;;4936313;29;20619;-87
2022/10/04 22:05:19;;;;;;;604.13;166.17;;;9.80;1.00;;;;;;4934846;29;20193;-86
2022/10/04 22:07:46;;;;;;;604.30;169.07;;;9.70;1.00;;;;;;4936542;29;20272;-86
2022/10/04 22:10:13;;;;;;;603.27;166.93;;;9.70;1.00;;;;;;4936105;29;20252;-86
2022/10/04 22:12:40;;;;;;;603.60;168.07;;;9.80;1.00;;;;;;4935863;29;20660;-86
2022/10/04 22:15:09;;;;;;;605.97;171.80;;;9.80;1.00;;;;;;4935854;29;20698;-86
2022/10/04 22:17:36;;;;;;;606.07;161.93;;;9.80;1.00;;;;;;4936052;29;20206;-86
2022/10/04 22:20:05;;;;;;;601.97;167.23;;;9.80;1.00;;;;;;4935903;29;20793;-86
2022/10/04 22:22:32;;;;;;;606.27;162.60;;;9.80;1.00;;;;;;4935644;29;20244;-86
2022/10/04 22:24:59;;;;;;;610.17;168.57;;;9.80;1.00;;;;;;4924719;29;20192;-86
2022/10/04 22:27:28;;;;;;;623.17;174.30;;;9.80;1.00;;;;;;4936205;29;20260;-87
2022/10/04 22:29:56;;;;;;;624.17;169.23;;;9.80;1.00;;;;;;4935944;29;20199;-86
2022/10/04 22:32:25;;;;;;;635.17;180.77;;;9.80;1.00;;;;;;4935488;29;20252;-87
2022/10/04 22:34:57;;;;;;;636.20;182.87;;;9.80;1.00;;;;;;4935808;29;20219;-87
2022/10/04 22:37:26;;;;;;;638.53;181.47;;;9.80;1.00;;;;;;4935920;29;20598;-86
2022/10/04 22:39:53;;;;;;;638.87;175.20;;;9.80;1.00;;;;;;4934486;29;20279;-86
2022/10/04 22:42:30;;;;;;;647.63;183.77;;;9.80;1.00;;;;;;4935686;29;20192;-86
2022/10/04 22:45:00;;;;;;;651.03;185.23;;;9.80;1.00;;;;;;4935406;29;20701;-86
2022/10/04 22:47:31;;;;;;;645.50;183.43;;;9.80;1.00;;;;;;4936961;29;20279;-86